Terminal Aerodrome Forecast
Issued by NWS Cleveland, OH

Home | Current Version | Previous Version | Graphics & Text | Print | Product List | Glossary On
Versions: 1 2 3 4 5 6 7 8 9 10 11 12 13 14 15 16 17 18 19 20 21 22
000
FTUS41 KCLE 140500
TAFERI
TAF
KERI 140520Z 1406/1506 17008KT P6SM SCT050 BKN250 WS010/21040KT
     FM141000 19018G28KT P6SM SCT050 BKN120 WS014/21045KT
     FM141600 20024G34KT P6SM OVC045
      TEMPO 1418/1422 5SM -SHRA BKN030
     FM142200 21020G28KT 6SM -SHRA VCTS SCT020CB OVC035
      TEMPO 1422/1502 4SM SHRA BR OVC020
     FM150200 25012KT 6SM -DZ BR OVC020
     FM150400 28012KT 4SM -DZ BR OVC012=

USA.gov is the U.S. government's official web portal to all federal, state and local government web resources and services.